首页
METAR-TAF:

METAR-TAF

机场 :

Grazzanise, 意大利

纬度: 41-03N, 经度: 014-04E, 海拔: 9米

当前天气观测

该预报发布于50分钟前的09:55 UTC
风速10节,风向东北
温度 10°C
湿度 71%
气压 1022 hPa
能见度10公里或以上
1500米以下无云,无积雨云

METAR: LIRM 190955Z 05010KT CAVOK 10/05 Q1022 RMK SKC VIS MIN 9999 WIND THR06 03010KT BLU

时间: 11:45 (10:45 UTC)

预报

该预报发布于2小时和45分钟前的08:00 UTC
预报有效从19日的 09点(UTC)到 19日的 18点(UTC)
风速6节,风向北转东北
能見度: 5000
轻雾
成为
从 19日的 10点(UTC)到 19日的 12点(UTC)
能见度10公里或以上
1500米以下无云,无积雨云

TAF: LIRM 190800Z 1909/1918 03006KT 5000 BR NSC BECMG 1910/1912 CAVOK

超过4000个机场的气象观测和天气预报(METAR&TAF报告)。

可查询的气象台以黄色和红色小点在地图上表示。

将鼠标移到小点上方,可查看气象台名称。

然后点击查看天气观测和预报。

如需切换地图:点击带黑十字的绿色按钮放大地图;点击带横线的绿色按钮缩小地图;或者点击绿色箭头查看邻近地区的地图。


METAR-TAF: